sensor_id;sensor_type;location;lat;lon;timestamp;P1;durP1;ratioP1;P2;durP2;ratioP2
23866;SDS011;12114;53.404;-1.502;2023-03-23T00:02:06;4.60;;;1.47;;
23866;SDS011;12114;53.404;-1.502;2023-03-23T00:04:51;4.70;;;1.13;;
23866;SDS011;12114;53.404;-1.502;2023-03-23T00:07:36;4.90;;;0.80;;
23866;SDS011;12114;53.404;-1.502;2023-03-23T00:10:20;8.18;;;1.58;;
23866;SDS011;12114;53.404;-1.502;2023-03-23T00:13:05;3.40;;;1.15;;
23866;SDS011;12114;53.404;-1.502;2023-03-23T00:15:49;6.55;;;1.20;;
23866;SDS011;12114;53.404;-1.502;2023-03-23T00:18:35;6.82;;;1.05;;
23866;SDS011;12114;53.404;-1.502;2023-03-23T00:21:20;7.82;;;1.33;;
23866;SDS011;12114;53.404;-1.502;2023-03-23T00:24:09;3.88;;;1.20;;
23866;SDS011;12114;53.404;-1.502;2023-03-23T00:26:59;4.63;;;1.10;;
23866;SDS011;12114;53.404;-1.502;2023-03-23T00:29:44;4.60;;;1.23;;
23866;SDS011;12114;53.404;-1.502;2023-03-23T00:32:31;7.93;;;1.38;;
23866;SDS011;12114;53.404;-1.502;2023-03-23T00:35:15;5.75;;;1.42;;
23866;SDS011;12114;53.404;-1.502;2023-03-23T00:37:59;6.28;;;1.50;;
23866;SDS011;12114;53.404;-1.502;2023-03-23T00:40:43;7.38;;;1.27;;
23866;SDS011;12114;53.404;-1.502;2023-03-23T00:43:27;10.63;;;1.30;;
23866;SDS011;12114;53.404;-1.502;2023-03-23T00:46:12;5.32;;;0.88;;
23866;SDS011;12114;53.404;-1.502;2023-03-23T00:48:57;5.60;;;1.20;;
23866;SDS011;12114;53.404;-1.502;2023-03-23T00:51:41;7.75;;;1.02;;
23866;SDS011;12114;53.404;-1.502;2023-03-23T00:54:25;9.43;;;1.70;;
23866;SDS011;12114;53.404;-1.502;2023-03-23T00:57:10;7.00;;;1.20;;
23866;SDS011;12114;53.404;-1.502;2023-03-23T00:59:54;8.20;;;1.63;;
23866;SDS011;12114;53.404;-1.502;2023-03-23T01:02:38;5.70;;;1.30;;
23866;SDS011;12114;53.404;-1.502;2023-03-23T01:05:23;7.18;;;1.15;;
23866;SDS011;12114;53.404;-1.502;2023-03-23T01:08:07;7.68;;;0.98;;
23866;SDS011;12114;53.404;-1.502;2023-03-23T01:11:01;8.18;;;1.80;;
23866;SDS011;12114;53.404;-1.502;2023-03-23T01:13:49;4.30;;;0.70;;
23866;SDS011;12114;53.404;-1.502;2023-03-23T01:16:33;10.68;;;1.13;;
23866;SDS011;12114;53.404;-1.502;2023-03-23T01:19:17;8.27;;;1.27;;
23866;SDS011;12114;53.404;-1.502;2023-03-23T01:22:02;7.05;;;1.42;;
23866;SDS011;12114;53.404;-1.502;2023-03-23T01:24:46;9.02;;;1.45;;
23866;SDS011;12114;53.404;-1.502;2023-03-23T01:27:30;7.70;;;0.95;;
23866;SDS011;12114;53.404;-1.502;2023-03-23T01:30:14;11.23;;;1.48;;
23866;SDS011;12114;53.404;-1.502;2023-03-23T01:32:58;7.25;;;1.15;;
23866;SDS011;12114;53.404;-1.502;2023-03-23T01:35:42;7.25;;;1.67;;
23866;SDS011;12114;53.404;-1.502;2023-03-23T01:38:26;7.70;;;1.30;;
23866;SDS011;12114;53.404;-1.502;2023-03-23T01:41:10;5.88;;;1.02;;
23866;SDS011;12114;53.404;-1.502;2023-03-23T01:46:50;10.83;;;1.30;;
23866;SDS011;12114;53.404;-1.502;2023-03-23T01:49:35;10.25;;;1.42;;
23866;SDS011;12114;53.404;-1.502;2023-03-23T01:52:24;10.80;;;1.60;;
23866;SDS011;12114;53.404;-1.502;2023-03-23T01:55:12;6.35;;;0.95;;
23866;SDS011;12114;53.404;-1.502;2023-03-23T01:57:56;5.70;;;1.20;;
23866;SDS011;12114;53.404;-1.502;2023-03-23T02:00:41;9.30;;;1.10;;
23866;SDS011;12114;53.404;-1.502;2023-03-23T02:03:26;4.37;;;0.93;;
23866;SDS011;12114;53.404;-1.502;2023-03-23T02:06:12;7.47;;;1.25;;
23866;SDS011;12114;53.404;-1.502;2023-03-23T02:08:57;6.70;;;1.13;;
23866;SDS011;12114;53.404;-1.502;2023-03-23T02:11:41;11.88;;;1.67;;
23866;SDS011;12114;53.404;-1.502;2023-03-23T02:14:26;5.43;;;1.23;;
23866;SDS011;12114;53.404;-1.502;2023-03-23T02:17:45;9.43;;;1.50;;
23866;SDS011;12114;53.404;-1.502;2023-03-23T02:29:32;6.63;;;1.33;;
23866;SDS011;12114;53.404;-1.502;2023-03-23T02:32:32;11.35;;;1.85;;
23866;SDS011;12114;53.404;-1.502;2023-03-23T02:35:28;9.75;;;1.83;;
23866;SDS011;12114;53.404;-1.502;2023-03-23T02:38:21;12.10;;;2.08;;
23866;SDS011;12114;53.404;-1.502;2023-03-23T02:41:10;11.85;;;1.17;;
23866;SDS011;12114;53.404;-1.502;2023-03-23T02:43:56;14.55;;;1.75;;
23866;SDS011;12114;53.404;-1.502;2023-03-23T02:46:41;9.05;;;1.20;;
23866;SDS011;12114;53.404;-1.502;2023-03-23T02:49:27;9.38;;;1.67;;
23866;SDS011;12114;53.404;-1.502;2023-03-23T02:52:19;7.22;;;1.52;;
23866;SDS011;12114;53.404;-1.502;2023-03-23T02:55:08;10.77;;;1.70;;
23866;SDS011;12114;53.404;-1.502;2023-03-23T02:57:55;14.88;;;2.03;;
23866;SDS011;12114;53.404;-1.502;2023-03-23T03:00:40;9.23;;;1.80;;
23866;SDS011;12114;53.404;-1.502;2023-03-23T03:03:26;13.80;;;1.90;;
23866;SDS011;12114;53.404;-1.502;2023-03-23T03:12:36;12.10;;;1.67;;
23866;SDS011;12114;53.404;-1.502;2023-03-23T03:15:36;7.07;;;1.45;;
23866;SDS011;12114;53.404;-1.502;2023-03-23T03:18:30;9.60;;;1.58;;
23866;SDS011;12114;53.404;-1.502;2023-03-23T03:21:21;12.27;;;2.03;;
23866;SDS011;12114;53.404;-1.502;2023-03-23T03:24:11;14.73;;;2.03;;
23866;SDS011;12114;53.404;-1.502;2023-03-23T03:26:59;13.45;;;1.75;;
23866;SDS011;12114;53.404;-1.502;2023-03-23T03:29:47;10.95;;;2.25;;
23866;SDS011;12114;53.404;-1.502;2023-03-23T03:32:54;6.40;;;1.63;;
23866;SDS011;12114;53.404;-1.502;2023-03-23T03:35:38;11.98;;;2.05;;
23866;SDS011;12114;53.404;-1.502;2023-03-23T03:38:26;9.50;;;2.03;;
23866;SDS011;12114;53.404;-1.502;2023-03-23T03:41:10;9.88;;;1.27;;
23866;SDS011;12114;53.404;-1.502;2023-03-23T03:43:54;9.65;;;1.55;;
23866;SDS011;12114;53.404;-1.502;2023-03-23T03:46:38;11.77;;;1.67;;
23866;SDS011;12114;53.404;-1.502;2023-03-23T03:49:23;16.45;;;2.20;;
23866;SDS011;12114;53.404;-1.502;2023-03-23T03:52:07;17.30;;;2.00;;
23866;SDS011;12114;53.404;-1.502;2023-03-23T03:54:51;10.55;;;1.58;;
23866;SDS011;12114;53.404;-1.502;2023-03-23T03:57:35;15.95;;;2.17;;
23866;SDS011;12114;53.404;-1.502;2023-03-23T04:00:20;14.38;;;1.92;;
23866;SDS011;12114;53.404;-1.502;2023-03-23T04:03:06;14.77;;;2.05;;
23866;SDS011;12114;53.404;-1.502;2023-03-23T04:05:51;17.00;;;1.80;;
23866;SDS011;12114;53.404;-1.502;2023-03-23T04:08:35;16.38;;;1.90;;
23866;SDS011;12114;53.404;-1.502;2023-03-23T04:11:25;13.48;;;1.70;;
23866;SDS011;12114;53.404;-1.502;2023-03-23T04:14:10;10.40;;;1.57;;
23866;SDS011;12114;53.404;-1.502;2023-03-23T04:16:54;12.32;;;1.98;;
23866;SDS011;12114;53.404;-1.502;2023-03-23T04:19:40;16.90;;;2.40;;
23866;SDS011;12114;53.404;-1.502;2023-03-23T04:22:24;16.83;;;2.78;;
23866;SDS011;12114;53.404;-1.502;2023-03-23T04:25:13;18.45;;;2.60;;
23866;SDS011;12114;53.404;-1.502;2023-03-23T04:27:58;14.38;;;2.38;;
23866;SDS011;12114;53.404;-1.502;2023-03-23T04:30:44;16.58;;;2.42;;
23866;SDS011;12114;53.404;-1.502;2023-03-23T04:33:32;15.68;;;3.15;;
23866;SDS011;12114;53.404;-1.502;2023-03-23T04:36:16;20.95;;;2.33;;
23866;SDS011;12114;53.404;-1.502;2023-03-23T04:39:00;16.67;;;2.17;;
23866;SDS011;12114;53.404;-1.502;2023-03-23T04:41:46;19.90;;;2.53;;
23866;SDS011;12114;53.404;-1.502;2023-03-23T04:44:31;14.68;;;2.03;;
23866;SDS011;12114;53.404;-1.502;2023-03-23T04:47:16;13.50;;;2.10;;
23866;SDS011;12114;53.404;-1.502;2023-03-23T04:50:00;11.63;;;2.03;;
23866;SDS011;12114;53.404;-1.502;2023-03-23T04:52:44;13.02;;;2.20;;
23866;SDS011;12114;53.404;-1.502;2023-03-23T04:55:29;11.70;;;1.92;;
23866;SDS011;12114;53.404;-1.502;2023-03-23T04:58:14;14.02;;;2.42;;
23866;SDS011;12114;53.404;-1.502;2023-03-23T05:01:00;19.17;;;2.92;;
23866;SDS011;12114;53.404;-1.502;2023-03-23T05:03:44;14.80;;;2.47;;
23866;SDS011;12114;53.404;-1.502;2023-03-23T05:06:28;18.00;;;2.05;;
23866;SDS011;12114;53.404;-1.502;2023-03-23T05:09:13;19.27;;;1.90;;
23866;SDS011;12114;53.404;-1.502;2023-03-23T05:11:57;16.30;;;2.30;;
23866;SDS011;12114;53.404;-1.502;2023-03-23T05:14:43;20.00;;;2.83;;
23866;SDS011;12114;53.404;-1.502;2023-03-23T05:17:27;22.33;;;2.85;;
23866;SDS011;12114;53.404;-1.502;2023-03-23T05:20:14;17.50;;;3.00;;
23866;SDS011;12114;53.404;-1.502;2023-03-23T05:23:02;16.70;;;2.42;;
23866;SDS011;12114;53.404;-1.502;2023-03-23T05:25:56;15.95;;;2.78;;
23866;SDS011;12114;53.404;-1.502;2023-03-23T05:28:44;23.45;;;3.67;;
23866;SDS011;12114;53.404;-1.502;2023-03-23T05:31:29;17.73;;;3.30;;
23866;SDS011;12114;53.404;-1.502;2023-03-23T05:34:13;21.35;;;2.63;;
23866;SDS011;12114;53.404;-1.502;2023-03-23T05:37:00;20.30;;;3.03;;
23866;SDS011;12114;53.404;-1.502;2023-03-23T05:39:45;19.67;;;3.42;;
23866;SDS011;12114;53.404;-1.502;2023-03-23T05:42:29;15.30;;;2.22;;
23866;SDS011;12114;53.404;-1.502;2023-03-23T05:45:13;21.05;;;3.10;;
23866;SDS011;12114;53.404;-1.502;2023-03-23T05:47:57;15.98;;;2.85;;
23866;SDS011;12114;53.404;-1.502;2023-03-23T05:50:41;17.05;;;2.30;;
23866;SDS011;12114;53.404;-1.502;2023-03-23T05:53:25;17.38;;;2.92;;
23866;SDS011;12114;53.404;-1.502;2023-03-23T05:56:09;15.48;;;2.83;;
23866;SDS011;12114;53.404;-1.502;2023-03-23T05:58:57;14.02;;;2.35;;
23866;SDS011;12114;53.404;-1.502;2023-03-23T06:01:42;16.67;;;2.60;;
23866;SDS011;12114;53.404;-1.502;2023-03-23T06:04:26;22.25;;;3.53;;
23866;SDS011;12114;53.404;-1.502;2023-03-23T06:07:10;14.27;;;2.97;;
23866;SDS011;12114;53.404;-1.502;2023-03-23T06:09:58;17.80;;;2.58;;
23866;SDS011;12114;53.404;-1.502;2023-03-23T06:12:42;13.77;;;2.72;;
23866;SDS011;12114;53.404;-1.502;2023-03-23T06:15:26;18.15;;;2.40;;
23866;SDS011;12114;53.404;-1.502;2023-03-23T06:18:12;19.08;;;2.58;;
23866;SDS011;12114;53.404;-1.502;2023-03-23T06:20:57;21.42;;;3.47;;
23866;SDS011;12114;53.404;-1.502;2023-03-23T06:23:41;15.48;;;2.42;;
23866;SDS011;12114;53.404;-1.502;2023-03-23T06:26:27;19.60;;;3.08;;
23866;SDS011;12114;53.404;-1.502;2023-03-23T06:29:15;23.63;;;3.42;;
23866;SDS011;12114;53.404;-1.502;2023-03-23T06:32:01;19.52;;;2.97;;
23866;SDS011;12114;53.404;-1.502;2023-03-23T06:34:46;19.95;;;3.13;;
23866;SDS011;12114;53.404;-1.502;2023-03-23T06:37:31;10.45;;;2.60;;
23866;SDS011;12114;53.404;-1.502;2023-03-23T06:40:15;25.10;;;3.58;;
23866;SDS011;12114;53.404;-1.502;2023-03-23T06:43:02;26.95;;;3.47;;
23866;SDS011;12114;53.404;-1.502;2023-03-23T06:45:47;24.35;;;3.08;;
23866;SDS011;12114;53.404;-1.502;2023-03-23T06:48:31;17.50;;;3.17;;
23866;SDS011;12114;53.404;-1.502;2023-03-23T06:51:16;17.50;;;2.80;;
23866;SDS011;12114;53.404;-1.502;2023-03-23T06:54:00;19.40;;;2.78;;
23866;SDS011;12114;53.404;-1.502;2023-03-23T06:56:45;22.20;;;3.38;;
23866;SDS011;12114;53.404;-1.502;2023-03-23T06:59:29;20.15;;;3.55;;
23866;SDS011;12114;53.404;-1.502;2023-03-23T07:02:13;23.10;;;3.22;;
23866;SDS011;12114;53.404;-1.502;2023-03-23T07:04:58;18.93;;;3.40;;
23866;SDS011;12114;53.404;-1.502;2023-03-23T07:07:42;26.58;;;4.07;;
23866;SDS011;12114;53.404;-1.502;2023-03-23T07:10:26;22.00;;;3.58;;
23866;SDS011;12114;53.404;-1.502;2023-03-23T07:13:11;15.57;;;2.97;;
23866;SDS011;12114;53.404;-1.502;2023-03-23T07:15:55;21.20;;;3.22;;
23866;SDS011;12114;53.404;-1.502;2023-03-23T07:18:39;18.73;;;2.88;;
23866;SDS011;12114;53.404;-1.502;2023-03-23T07:21:23;18.85;;;3.22;;
23866;SDS011;12114;53.404;-1.502;2023-03-23T07:24:11;26.30;;;3.88;;
23866;SDS011;12114;53.404;-1.502;2023-03-23T07:26:57;22.90;;;3.47;;
23866;SDS011;12114;53.404;-1.502;2023-03-23T07:29:41;20.65;;;4.10;;
23866;SDS011;12114;53.404;-1.502;2023-03-23T07:32:28;19.23;;;2.92;;
23866;SDS011;12114;53.404;-1.502;2023-03-23T07:35:12;18.20;;;3.65;;
23866;SDS011;12114;53.404;-1.502;2023-03-23T07:37:56;21.58;;;3.90;;
23866;SDS011;12114;53.404;-1.502;2023-03-23T07:40:40;23.52;;;3.90;;
23866;SDS011;12114;53.404;-1.502;2023-03-23T07:43:24;21.42;;;3.45;;
23866;SDS011;12114;53.404;-1.502;2023-03-23T07:46:08;16.35;;;3.60;;
23866;SDS011;12114;53.404;-1.502;2023-03-23T07:48:52;23.23;;;4.20;;
23866;SDS011;12114;53.404;-1.502;2023-03-23T07:51:36;28.25;;;3.75;;
23866;SDS011;12114;53.404;-1.502;2023-03-23T07:54:21;22.52;;;4.60;;
23866;SDS011;12114;53.404;-1.502;2023-03-23T07:57:05;15.98;;;3.40;;
23866;SDS011;12114;53.404;-1.502;2023-03-23T07:59:50;22.98;;;3.80;;
23866;SDS011;12114;53.404;-1.502;2023-03-23T08:02:34;17.05;;;3.20;;
23866;SDS011;12114;53.404;-1.502;2023-03-23T08:05:18;19.25;;;3.75;;
23866;SDS011;12114;53.404;-1.502;2023-03-23T08:08:04;25.17;;;3.50;;
23866;SDS011;12114;53.404;-1.502;2023-03-23T08:10:48;19.38;;;3.55;;
23866;SDS011;12114;53.404;-1.502;2023-03-23T08:13:32;19.90;;;2.85;;
23866;SDS011;12114;53.404;-1.502;2023-03-23T08:16:19;18.10;;;3.53;;
23866;SDS011;12114;53.404;-1.502;2023-03-23T08:19:03;18.75;;;3.83;;
23866;SDS011;12114;53.404;-1.502;2023-03-23T08:21:49;18.90;;;2.73;;
23866;SDS011;12114;53.404;-1.502;2023-03-23T08:24:33;18.13;;;3.67;;
23866;SDS011;12114;53.404;-1.502;2023-03-23T08:27:17;21.35;;;3.72;;
23866;SDS011;12114;53.404;-1.502;2023-03-23T08:30:01;15.27;;;3.25;;
23866;SDS011;12114;53.404;-1.502;2023-03-23T08:32:46;19.73;;;3.45;;
23866;SDS011;12114;53.404;-1.502;2023-03-23T08:35:31;22.47;;;3.77;;
23866;SDS011;12114;53.404;-1.502;2023-03-23T08:38:14;11.25;;;2.90;;
23866;SDS011;12114;53.404;-1.502;2023-03-23T08:40:59;18.15;;;3.50;;
23866;SDS011;12114;53.404;-1.502;2023-03-23T08:46:28;19.42;;;2.65;;
23866;SDS011;12114;53.404;-1.502;2023-03-23T08:49:12;13.00;;;3.17;;
23866;SDS011;12114;53.404;-1.502;2023-03-23T08:51:56;23.52;;;3.70;;
23866;SDS011;12114;53.404;-1.502;2023-03-23T08:54:40;18.38;;;3.53;;
23866;SDS011;12114;53.404;-1.502;2023-03-23T08:57:25;18.95;;;3.28;;
23866;SDS011;12114;53.404;-1.502;2023-03-23T09:00:10;15.88;;;3.10;;
23866;SDS011;12114;53.404;-1.502;2023-03-23T09:03:01;14.65;;;3.00;;
23866;SDS011;12114;53.404;-1.502;2023-03-23T09:05:46;18.63;;;3.22;;
23866;SDS011;12114;53.404;-1.502;2023-03-23T09:08:30;21.10;;;3.42;;
23866;SDS011;12114;53.404;-1.502;2023-03-23T09:11:15;18.60;;;3.40;;
23866;SDS011;12114;53.404;-1.502;2023-03-23T09:14:00;16.63;;;3.38;;
23866;SDS011;12114;53.404;-1.502;2023-03-23T09:16:44;17.55;;;3.30;;
23866;SDS011;12114;53.404;-1.502;2023-03-23T09:19:29;22.00;;;3.47;;
23866;SDS011;12114;53.404;-1.502;2023-03-23T09:22:13;17.38;;;3.47;;
23866;SDS011;12114;53.404;-1.502;2023-03-23T09:24:59;16.67;;;2.72;;
23866;SDS011;12114;53.404;-1.502;2023-03-23T09:27:44;23.17;;;3.08;;
23866;SDS011;12114;53.404;-1.502;2023-03-23T09:30:31;20.63;;;3.60;;
23866;SDS011;12114;53.404;-1.502;2023-03-23T09:33:17;18.58;;;3.60;;
23866;SDS011;12114;53.404;-1.502;2023-03-23T09:36:01;19.15;;;3.58;;
23866;SDS011;12114;53.404;-1.502;2023-03-23T09:38:46;22.75;;;3.60;;
23866;SDS011;12114;53.404;-1.502;2023-03-23T09:44:51;14.80;;;2.85;;
23866;SDS011;12114;53.404;-1.502;2023-03-23T09:48:11;13.98;;;2.65;;
23866;SDS011;12114;53.404;-1.502;2023-03-23T09:51:08;18.60;;;3.38;;
23866;SDS011;12114;53.404;-1.502;2023-03-23T09:54:13;16.60;;;2.55;;
23866;SDS011;12114;53.404;-1.502;2023-03-23T10:03:27;15.18;;;2.63;;
23866;SDS011;12114;53.404;-1.502;2023-03-23T10:06:17;15.43;;;2.50;;
23866;SDS011;12114;53.404;-1.502;2023-03-23T10:09:03;16.97;;;3.60;;
23866;SDS011;12114;53.404;-1.502;2023-03-23T10:17:59;17.23;;;3.55;;
23866;SDS011;12114;53.404;-1.502;2023-03-23T10:20:56;16.85;;;2.88;;
23866;SDS011;12114;53.404;-1.502;2023-03-23T10:29:41;12.85;;;3.08;;
23866;SDS011;12114;53.404;-1.502;2023-03-23T10:35:53;13.32;;;2.55;;
23866;SDS011;12114;53.404;-1.502;2023-03-23T10:38:46;15.30;;;2.70;;
23866;SDS011;12114;53.404;-1.502;2023-03-23T10:41:33;16.15;;;2.75;;
23866;SDS011;12114;53.404;-1.502;2023-03-23T10:44:19;17.60;;;3.17;;
23866;SDS011;12114;53.404;-1.502;2023-03-23T10:47:06;11.32;;;2.85;;
23866;SDS011;12114;53.404;-1.502;2023-03-23T10:49:56;19.00;;;3.70;;
23866;SDS011;12114;53.404;-1.502;2023-03-23T10:52:42;17.23;;;3.15;;
23866;SDS011;12114;53.404;-1.502;2023-03-23T10:55:38;15.75;;;3.30;;
23866;SDS011;12114;53.404;-1.502;2023-03-23T10:58:24;16.27;;;3.13;;
23866;SDS011;12114;53.404;-1.502;2023-03-23T11:01:12;12.98;;;2.55;;
23866;SDS011;12114;53.404;-1.502;2023-03-23T11:03:56;18.35;;;3.47;;
23866;SDS011;12114;53.404;-1.502;2023-03-23T11:06:45;16.77;;;3.43;;
23866;SDS011;12114;53.404;-1.502;2023-03-23T11:09:39;15.95;;;2.95;;
23866;SDS011;12114;53.404;-1.502;2023-03-23T11:12:34;18.52;;;3.17;;
23866;SDS011;12114;53.404;-1.502;2023-03-23T11:18:26;12.32;;;2.63;;
23866;SDS011;12114;53.404;-1.502;2023-03-23T11:21:19;14.95;;;2.35;;
23866;SDS011;12114;53.404;-1.502;2023-03-23T11:24:07;18.55;;;3.03;;
23866;SDS011;12114;53.404;-1.502;2023-03-23T11:26:52;18.17;;;2.92;;
23866;SDS011;12114;53.404;-1.502;2023-03-23T11:29:47;11.77;;;2.50;;
23866;SDS011;12114;53.404;-1.502;2023-03-23T11:32:32;16.42;;;3.33;;
23866;SDS011;12114;53.404;-1.502;2023-03-23T11:35:23;15.30;;;3.08;;
23866;SDS011;12114;53.404;-1.502;2023-03-23T11:38:16;21.05;;;3.55;;
23866;SDS011;12114;53.404;-1.502;2023-03-23T11:41:08;20.60;;;3.75;;
23866;SDS011;12114;53.404;-1.502;2023-03-23T11:43:56;19.35;;;2.50;;
23866;SDS011;12114;53.404;-1.502;2023-03-23T11:46:49;19.58;;;3.13;;
23866;SDS011;12114;53.404;-1.502;2023-03-23T11:50:04;5.75;;;1.38;;
23866;SDS011;12114;53.404;-1.502;2023-03-23T11:58:30;9.52;;;1.70;;
23866;SDS011;12114;53.404;-1.502;2023-03-23T12:20:10;14.30;;;2.58;;
23866;SDS011;12114;53.404;-1.502;2023-03-23T12:26:23;9.35;;;2.13;;
23866;SDS011;12114;53.404;-1.502;2023-03-23T12:46:37;18.25;;;2.58;;
23866;SDS011;12114;53.404;-1.502;2023-03-23T12:52:14;7.25;;;1.33;;
23866;SDS011;12114;53.404;-1.502;2023-03-23T12:58:01;3.50;;;0.95;;
23866;SDS011;12114;53.404;-1.502;2023-03-23T13:00:54;5.30;;;1.27;;
23866;SDS011;12114;53.404;-1.502;2023-03-23T13:03:59;6.97;;;1.23;;
23866;SDS011;12114;53.404;-1.502;2023-03-23T13:06:51;4.68;;;1.20;;
23866;SDS011;12114;53.404;-1.502;2023-03-23T13:12:33;8.70;;;1.92;;
23866;SDS011;12114;53.404;-1.502;2023-03-23T13:21:05;6.60;;;1.73;;
23866;SDS011;12114;53.404;-1.502;2023-03-23T13:24:00;9.07;;;1.88;;
23866;SDS011;12114;53.404;-1.502;2023-03-23T13:26:54;13.52;;;2.05;;
23866;SDS011;12114;53.404;-1.502;2023-03-23T13:29:44;12.43;;;2.20;;
23866;SDS011;12114;53.404;-1.502;2023-03-23T13:35:18;9.95;;;1.80;;
23866;SDS011;12114;53.404;-1.502;2023-03-23T13:38:26;10.68;;;1.83;;
23866;SDS011;12114;53.404;-1.502;2023-03-23T13:41:15;11.40;;;1.90;;
23866;SDS011;12114;53.404;-1.502;2023-03-23T13:44:22;8.68;;;1.67;;
23866;SDS011;12114;53.404;-1.502;2023-03-23T13:47:16;10.00;;;1.90;;
23866;SDS011;12114;53.404;-1.502;2023-03-23T13:50:11;11.35;;;2.45;;
23866;SDS011;12114;53.404;-1.502;2023-03-23T13:53:24;6.97;;;2.00;;
23866;SDS011;12114;53.404;-1.502;2023-03-23T13:59:14;10.27;;;2.35;;
23866;SDS011;12114;53.404;-1.502;2023-03-23T14:10:53;12.27;;;2.30;;
23866;SDS011;12114;53.404;-1.502;2023-03-23T14:16:41;12.48;;;2.22;;
23866;SDS011;12114;53.404;-1.502;2023-03-23T14:19:27;11.63;;;2.47;;
23866;SDS011;12114;53.404;-1.502;2023-03-23T14:22:21;10.18;;;1.63;;
23866;SDS011;12114;53.404;-1.502;2023-03-23T14:25:15;12.68;;;2.20;;
23866;SDS011;12114;53.404;-1.502;2023-03-23T14:28:00;13.88;;;2.20;;
23866;SDS011;12114;53.404;-1.502;2023-03-23T14:30:44;11.52;;;1.75;;
23866;SDS011;12114;53.404;-1.502;2023-03-23T14:33:28;6.30;;;1.40;;
23866;SDS011;12114;53.404;-1.502;2023-03-23T14:36:11;9.38;;;1.77;;
23866;SDS011;12114;53.404;-1.502;2023-03-23T14:41:49;10.77;;;2.40;;
23866;SDS011;12114;53.404;-1.502;2023-03-23T14:47:31;11.65;;;2.15;;
23866;SDS011;12114;53.404;-1.502;2023-03-23T14:50:23;9.68;;;2.15;;
23866;SDS011;12114;53.404;-1.502;2023-03-23T14:53:25;16.45;;;2.30;;
23866;SDS011;12114;53.404;-1.502;2023-03-23T14:56:15;12.00;;;2.20;;
23866;SDS011;12114;53.404;-1.502;2023-03-23T15:01:50;14.48;;;2.45;;
23866;SDS011;12114;53.404;-1.502;2023-03-23T15:04:35;17.40;;;3.03;;
23866;SDS011;12114;53.404;-1.502;2023-03-23T15:07:19;14.18;;;2.30;;
23866;SDS011;12114;53.404;-1.502;2023-03-23T15:12:50;14.82;;;3.13;;
23866;SDS011;12114;53.404;-1.502;2023-03-23T15:15:41;13.25;;;2.72;;
23866;SDS011;12114;53.404;-1.502;2023-03-23T15:18:28;12.82;;;2.50;;
23866;SDS011;12114;53.404;-1.502;2023-03-23T15:21:22;10.45;;;2.00;;
23866;SDS011;12114;53.404;-1.502;2023-03-23T15:24:33;13.02;;;2.03;;
23866;SDS011;12114;53.404;-1.502;2023-03-23T15:27:24;8.93;;;2.03;;
23866;SDS011;12114;53.404;-1.502;2023-03-23T15:33:01;10.15;;;1.70;;
23866;SDS011;12114;53.404;-1.502;2023-03-23T15:35:47;14.27;;;2.00;;
23866;SDS011;12114;53.404;-1.502;2023-03-23T15:38:33;15.63;;;2.83;;
23866;SDS011;12114;53.404;-1.502;2023-03-23T15:41:23;10.90;;;1.67;;
23866;SDS011;12114;53.404;-1.502;2023-03-23T15:44:21;10.55;;;1.70;;
23866;SDS011;12114;53.404;-1.502;2023-03-23T15:47:15;10.05;;;1.98;;
23866;SDS011;12114;53.404;-1.502;2023-03-23T15:50:20;11.85;;;1.90;;
23866;SDS011;12114;53.404;-1.502;2023-03-23T15:53:30;9.02;;;2.05;;
23866;SDS011;12114;53.404;-1.502;2023-03-23T15:56:15;9.48;;;2.15;;
23866;SDS011;12114;53.404;-1.502;2023-03-23T15:59:00;6.43;;;1.57;;
23866;SDS011;12114;53.404;-1.502;2023-03-23T16:01:44;9.80;;;1.77;;
23866;SDS011;12114;53.404;-1.502;2023-03-23T16:04:28;10.05;;;2.05;;
23866;SDS011;12114;53.404;-1.502;2023-03-23T16:07:13;11.15;;;2.05;;
23866;SDS011;12114;53.404;-1.502;2023-03-23T16:09:57;7.20;;;1.77;;
23866;SDS011;12114;53.404;-1.502;2023-03-23T16:12:41;11.65;;;2.42;;
23866;SDS011;12114;53.404;-1.502;2023-03-23T16:15:25;13.45;;;2.92;;
23866;SDS011;12114;53.404;-1.502;2023-03-23T16:18:27;13.55;;;4.80;;
23866;SDS011;12114;53.404;-1.502;2023-03-23T16:21:11;17.75;;;4.28;;
23866;SDS011;12114;53.404;-1.502;2023-03-23T16:23:55;12.77;;;2.70;;
23866;SDS011;12114;53.404;-1.502;2023-03-23T16:26:39;13.50;;;3.05;;
23866;SDS011;12114;53.404;-1.502;2023-03-23T16:29:23;11.32;;;2.53;;
23866;SDS011;12114;53.404;-1.502;2023-03-23T16:32:07;13.15;;;2.72;;
23866;SDS011;12114;53.404;-1.502;2023-03-23T16:34:51;12.48;;;2.50;;
23866;SDS011;12114;53.404;-1.502;2023-03-23T16:37:35;13.43;;;3.42;;
23866;SDS011;12114;53.404;-1.502;2023-03-23T16:40:19;15.07;;;3.10;;
23866;SDS011;12114;53.404;-1.502;2023-03-23T16:43:04;11.32;;;2.88;;
23866;SDS011;12114;53.404;-1.502;2023-03-23T16:45:48;11.25;;;2.63;;
23866;SDS011;12114;53.404;-1.502;2023-03-23T16:48:32;14.52;;;3.05;;
23866;SDS011;12114;53.404;-1.502;2023-03-23T16:51:16;18.67;;;3.25;;
23866;SDS011;12114;53.404;-1.502;2023-03-23T16:54:00;15.27;;;3.15;;
23866;SDS011;12114;53.404;-1.502;2023-03-23T16:56:44;14.60;;;3.22;;
23866;SDS011;12114;53.404;-1.502;2023-03-23T16:59:29;18.75;;;3.47;;
23866;SDS011;12114;53.404;-1.502;2023-03-23T17:02:13;14.15;;;3.25;;
23866;SDS011;12114;53.404;-1.502;2023-03-23T17:04:57;12.77;;;2.70;;
23866;SDS011;12114;53.404;-1.502;2023-03-23T17:07:41;16.40;;;2.97;;
23866;SDS011;12114;53.404;-1.502;2023-03-23T17:10:25;13.20;;;2.78;;
23866;SDS011;12114;53.404;-1.502;2023-03-23T17:13:11;12.48;;;2.85;;
23866;SDS011;12114;53.404;-1.502;2023-03-23T17:15:55;12.68;;;2.72;;
23866;SDS011;12114;53.404;-1.502;2023-03-23T17:18:40;12.73;;;2.80;;
23866;SDS011;12114;53.404;-1.502;2023-03-23T17:21:23;13.68;;;3.30;;
23866;SDS011;12114;53.404;-1.502;2023-03-23T17:24:08;14.20;;;3.03;;
23866;SDS011;12114;53.404;-1.502;2023-03-23T17:26:53;16.38;;;3.17;;
23866;SDS011;12114;53.404;-1.502;2023-03-23T17:29:37;13.52;;;3.17;;
23866;SDS011;12114;53.404;-1.502;2023-03-23T17:32:21;13.50;;;3.45;;
23866;SDS011;12114;53.404;-1.502;2023-03-23T17:35:07;13.75;;;2.90;;
23866;SDS011;12114;53.404;-1.502;2023-03-23T17:37:51;12.75;;;3.10;;
23866;SDS011;12114;53.404;-1.502;2023-03-23T17:40:35;15.88;;;3.53;;
23866;SDS011;12114;53.404;-1.502;2023-03-23T17:43:19;17.63;;;3.47;;
23866;SDS011;12114;53.404;-1.502;2023-03-23T17:46:04;16.70;;;3.50;;
23866;SDS011;12114;53.404;-1.502;2023-03-23T17:48:49;15.07;;;3.77;;
23866;SDS011;12114;53.404;-1.502;2023-03-23T17:51:34;19.97;;;3.73;;
23866;SDS011;12114;53.404;-1.502;2023-03-23T17:54:18;17.55;;;3.30;;
23866;SDS011;12114;53.404;-1.502;2023-03-23T17:57:02;17.02;;;3.10;;
23866;SDS011;12114;53.404;-1.502;2023-03-23T17:59:46;16.35;;;3.47;;
23866;SDS011;12114;53.404;-1.502;2023-03-23T18:02:30;14.55;;;3.85;;
23866;SDS011;12114;53.404;-1.502;2023-03-23T18:05:14;17.27;;;3.47;;
23866;SDS011;12114;53.404;-1.502;2023-03-23T18:07:59;13.00;;;2.75;;
23866;SDS011;12114;53.404;-1.502;2023-03-23T18:10:43;12.73;;;4.00;;
23866;SDS011;12114;53.404;-1.502;2023-03-23T18:13:29;16.25;;;5.22;;
23866;SDS011;12114;53.404;-1.502;2023-03-23T18:16:15;16.02;;;3.13;;
23866;SDS011;12114;53.404;-1.502;2023-03-23T18:18:59;18.08;;;5.60;;
23866;SDS011;12114;53.404;-1.502;2023-03-23T18:21:43;17.90;;;4.50;;
23866;SDS011;12114;53.404;-1.502;2023-03-23T18:24:27;16.10;;;5.45;;
23866;SDS011;12114;53.404;-1.502;2023-03-23T18:27:12;15.43;;;5.30;;
23866;SDS011;12114;53.404;-1.502;2023-03-23T18:29:56;13.05;;;3.92;;
23866;SDS011;12114;53.404;-1.502;2023-03-23T18:32:41;13.45;;;4.80;;
23866;SDS011;12114;53.404;-1.502;2023-03-23T18:35:25;18.80;;;5.32;;
23866;SDS011;12114;53.404;-1.502;2023-03-23T18:38:09;16.23;;;6.18;;
23866;SDS011;12114;53.404;-1.502;2023-03-23T18:40:57;17.77;;;6.35;;